sensor_id;sensor_type;location;lat;lon;timestamp;P1;durP1;ratioP1;P2;durP2;ratioP2
17858;SDS011;35426;30.698;104.050;2023-07-30T00:00:03;18.13;;;14.60;;
17858;SDS011;35426;30.698;104.050;2023-07-30T00:02:40;17.20;;;14.43;;
17858;SDS011;35426;30.698;104.050;2023-07-30T00:05:13;21.30;;;14.43;;
17858;SDS011;35426;30.698;104.050;2023-07-30T00:07:48;19.73;;;14.38;;
17858;SDS011;35426;30.698;104.050;2023-07-30T00:10:25;20.50;;;14.70;;
17858;SDS011;35426;30.698;104.050;2023-07-30T00:12:59;18.95;;;15.30;;
17858;SDS011;35426;30.698;104.050;2023-07-30T00:15:32;20.85;;;15.00;;
17858;SDS011;35426;30.698;104.050;2023-07-30T00:18:06;21.85;;;15.00;;
17858;SDS011;35426;30.698;104.050;2023-07-30T00:20:40;17.95;;;14.32;;
17858;SDS011;35426;30.698;104.050;2023-07-30T00:23:13;18.55;;;14.85;;
17858;SDS011;35426;30.698;104.050;2023-07-30T00:25:51;18.85;;;15.25;;
17858;SDS011;35426;30.698;104.050;2023-07-30T00:28:26;27.05;;;15.30;;
17858;SDS011;35426;30.698;104.050;2023-07-30T00:31:17;21.17;;;14.13;;
17858;SDS011;35426;30.698;104.050;2023-07-30T00:33:51;25.40;;;15.40;;
17858;SDS011;35426;30.698;104.050;2023-07-30T00:36:25;23.55;;;15.98;;
17858;SDS011;35426;30.698;104.050;2023-07-30T00:38:59;21.02;;;15.48;;
17858;SDS011;35426;30.698;104.050;2023-07-30T00:41:34;20.80;;;15.82;;
17858;SDS011;35426;30.698;104.050;2023-07-30T00:44:07;21.80;;;16.10;;
17858;SDS011;35426;30.698;104.050;2023-07-30T00:46:41;24.60;;;15.88;;
17858;SDS011;35426;30.698;104.050;2023-07-30T00:49:14;21.80;;;16.02;;
17858;SDS011;35426;30.698;104.050;2023-07-30T00:51:48;27.80;;;16.75;;
17858;SDS011;35426;30.698;104.050;2023-07-30T00:54:21;23.83;;;16.02;;
17858;SDS011;35426;30.698;104.050;2023-07-30T00:56:57;26.42;;;17.40;;
17858;SDS011;35426;30.698;104.050;2023-07-30T00:59:30;26.58;;;15.90;;
17858;SDS011;35426;30.698;104.050;2023-07-30T01:02:04;24.92;;;15.27;;
17858;SDS011;35426;30.698;104.050;2023-07-30T01:04:38;21.70;;;16.00;;
17858;SDS011;35426;30.698;104.050;2023-07-30T01:07:15;21.95;;;16.15;;
17858;SDS011;35426;30.698;104.050;2023-07-30T01:09:48;20.95;;;14.27;;
17858;SDS011;35426;30.698;104.050;2023-07-30T01:12:24;19.67;;;14.52;;
17858;SDS011;35426;30.698;104.050;2023-07-30T01:15:01;24.05;;;14.52;;
17858;SDS011;35426;30.698;104.050;2023-07-30T01:17:35;19.80;;;14.15;;
17858;SDS011;35426;30.698;104.050;2023-07-30T01:20:10;18.70;;;15.77;;
17858;SDS011;35426;30.698;104.050;2023-07-30T01:22:48;20.95;;;13.95;;
17858;SDS011;35426;30.698;104.050;2023-07-30T01:25:21;17.98;;;13.98;;
17858;SDS011;35426;30.698;104.050;2023-07-30T01:28:00;17.88;;;13.55;;
17858;SDS011;35426;30.698;104.050;2023-07-30T01:30:37;17.50;;;14.52;;
17858;SDS011;35426;30.698;104.050;2023-07-30T01:33:13;22.17;;;15.18;;
17858;SDS011;35426;30.698;104.050;2023-07-30T01:35:46;19.83;;;14.95;;
17858;SDS011;35426;30.698;104.050;2023-07-30T01:38:25;20.80;;;15.02;;
17858;SDS011;35426;30.698;104.050;2023-07-30T01:41:00;20.48;;;15.60;;
17858;SDS011;35426;30.698;104.050;2023-07-30T01:43:34;18.80;;;14.88;;
17858;SDS011;35426;30.698;104.050;2023-07-30T01:46:07;17.27;;;13.00;;
17858;SDS011;35426;30.698;104.050;2023-07-30T01:48:42;20.50;;;13.70;;
17858;SDS011;35426;30.698;104.050;2023-07-30T01:51:15;16.27;;;12.10;;
17858;SDS011;35426;30.698;104.050;2023-07-30T01:53:51;19.23;;;12.35;;
17858;SDS011;35426;30.698;104.050;2023-07-30T01:56:26;17.45;;;12.38;;
17858;SDS011;35426;30.698;104.050;2023-07-30T01:59:00;15.68;;;10.75;;
17858;SDS011;35426;30.698;104.050;2023-07-30T02:01:33;14.75;;;11.23;;
17858;SDS011;35426;30.698;104.050;2023-07-30T02:04:08;14.15;;;11.27;;
17858;SDS011;35426;30.698;104.050;2023-07-30T02:06:41;17.45;;;11.95;;
17858;SDS011;35426;30.698;104.050;2023-07-30T02:09:17;18.02;;;11.15;;
17858;SDS011;35426;30.698;104.050;2023-07-30T02:11:51;17.38;;;10.95;;
17858;SDS011;35426;30.698;104.050;2023-07-30T02:14:24;20.15;;;11.73;;
17858;SDS011;35426;30.698;104.050;2023-07-30T02:17:02;15.55;;;11.30;;
17858;SDS011;35426;30.698;104.050;2023-07-30T02:19:36;16.40;;;11.63;;
17858;SDS011;35426;30.698;104.050;2023-07-30T02:22:09;17.83;;;11.30;;
17858;SDS011;35426;30.698;104.050;2023-07-30T02:24:46;20.70;;;14.98;;
17858;SDS011;35426;30.698;104.050;2023-07-30T02:27:20;17.77;;;14.43;;
17858;SDS011;35426;30.698;104.050;2023-07-30T02:29:53;19.63;;;11.95;;
17858;SDS011;35426;30.698;104.050;2023-07-30T02:32:29;18.25;;;13.27;;
17858;SDS011;35426;30.698;104.050;2023-07-30T02:35:02;20.70;;;13.98;;
17858;SDS011;35426;30.698;104.050;2023-07-30T02:37:36;18.00;;;13.73;;
17858;SDS011;35426;30.698;104.050;2023-07-30T02:40:12;19.25;;;13.95;;
17858;SDS011;35426;30.698;104.050;2023-07-30T02:42:46;16.65;;;12.07;;
17858;SDS011;35426;30.698;104.050;2023-07-30T02:45:19;19.27;;;12.48;;
17858;SDS011;35426;30.698;104.050;2023-07-30T02:47:54;18.05;;;12.23;;
17858;SDS011;35426;30.698;104.050;2023-07-30T02:50:29;17.30;;;12.05;;
17858;SDS011;35426;30.698;104.050;2023-07-30T02:53:04;17.30;;;12.32;;
17858;SDS011;35426;30.698;104.050;2023-07-30T02:55:39;16.23;;;12.45;;
17858;SDS011;35426;30.698;104.050;2023-07-30T02:58:13;15.90;;;12.07;;
17858;SDS011;35426;30.698;104.050;2023-07-30T03:00:47;16.05;;;11.90;;
17858;SDS011;35426;30.698;104.050;2023-07-30T03:03:20;15.52;;;11.23;;
17858;SDS011;35426;30.698;104.050;2023-07-30T03:05:53;15.02;;;11.45;;
17858;SDS011;35426;30.698;104.050;2023-07-30T03:08:27;14.20;;;11.80;;
17858;SDS011;35426;30.698;104.050;2023-07-30T03:11:02;17.92;;;13.15;;
17858;SDS011;35426;30.698;104.050;2023-07-30T03:13:36;19.27;;;14.07;;
17858;SDS011;35426;30.698;104.050;2023-07-30T03:16:09;15.63;;;12.07;;
17858;SDS011;35426;30.698;104.050;2023-07-30T03:18:43;13.50;;;9.23;;
17858;SDS011;35426;30.698;104.050;2023-07-30T03:21:18;11.65;;;10.00;;
17858;SDS011;35426;30.698;104.050;2023-07-30T03:23:51;14.90;;;12.32;;
17858;SDS011;35426;30.698;104.050;2023-07-30T03:26:26;16.50;;;12.38;;
17858;SDS011;35426;30.698;104.050;2023-07-30T03:29:00;20.42;;;12.95;;
17858;SDS011;35426;30.698;104.050;2023-07-30T03:31:33;17.70;;;12.63;;
17858;SDS011;35426;30.698;104.050;2023-07-30T03:34:08;14.85;;;11.18;;
17858;SDS011;35426;30.698;104.050;2023-07-30T03:36:42;14.85;;;10.68;;
17858;SDS011;35426;30.698;104.050;2023-07-30T03:39:16;14.32;;;9.63;;
17858;SDS011;35426;30.698;104.050;2023-07-30T03:41:52;11.05;;;9.27;;
17858;SDS011;35426;30.698;104.050;2023-07-30T03:44:27;14.00;;;9.35;;
17858;SDS011;35426;30.698;104.050;2023-07-30T03:47:01;16.80;;;9.15;;
17858;SDS011;35426;30.698;104.050;2023-07-30T03:49:35;13.23;;;8.38;;
17858;SDS011;35426;30.698;104.050;2023-07-30T03:52:08;12.18;;;8.13;;
17858;SDS011;35426;30.698;104.050;2023-07-30T03:54:47;11.57;;;7.82;;
17858;SDS011;35426;30.698;104.050;2023-07-30T03:57:23;11.20;;;7.60;;
17858;SDS011;35426;30.698;104.050;2023-07-30T04:00:00;10.68;;;7.43;;
17858;SDS011;35426;30.698;104.050;2023-07-30T04:02:43;13.30;;;9.52;;
17858;SDS011;35426;30.698;104.050;2023-07-30T04:05:17;11.55;;;9.77;;
17858;SDS011;35426;30.698;104.050;2023-07-30T04:07:52;12.45;;;9.40;;
17858;SDS011;35426;30.698;104.050;2023-07-30T04:10:25;13.98;;;9.43;;
17858;SDS011;35426;30.698;104.050;2023-07-30T04:13:00;13.35;;;9.93;;
17858;SDS011;35426;30.698;104.050;2023-07-30T04:15:33;13.45;;;9.77;;
17858;SDS011;35426;30.698;104.050;2023-07-30T04:18:07;12.00;;;9.65;;
17858;SDS011;35426;30.698;104.050;2023-07-30T04:20:40;12.27;;;9.10;;
17858;SDS011;35426;30.698;104.050;2023-07-30T04:23:14;12.48;;;8.77;;
17858;SDS011;35426;30.698;104.050;2023-07-30T04:25:48;12.60;;;8.82;;
17858;SDS011;35426;30.698;104.050;2023-07-30T04:28:25;15.82;;;11.73;;
17858;SDS011;35426;30.698;104.050;2023-07-30T04:31:00;16.13;;;10.90;;
17858;SDS011;35426;30.698;104.050;2023-07-30T04:33:34;15.60;;;11.48;;
17858;SDS011;35426;30.698;104.050;2023-07-30T04:36:11;14.88;;;10.85;;
17858;SDS011;35426;30.698;104.050;2023-07-30T04:38:46;15.88;;;10.38;;
17858;SDS011;35426;30.698;104.050;2023-07-30T04:41:28;16.60;;;11.25;;
17858;SDS011;35426;30.698;104.050;2023-07-30T04:44:15;12.80;;;10.65;;
17858;SDS011;35426;30.698;104.050;2023-07-30T04:46:47;13.52;;;9.63;;
17858;SDS011;35426;30.698;104.050;2023-07-30T04:49:21;13.60;;;10.25;;
17858;SDS011;35426;30.698;104.050;2023-07-30T04:51:55;12.70;;;10.32;;
17858;SDS011;35426;30.698;104.050;2023-07-30T04:54:28;15.75;;;10.77;;
17858;SDS011;35426;30.698;104.050;2023-07-30T04:57:05;15.20;;;10.20;;
17858;SDS011;35426;30.698;104.050;2023-07-30T04:59:41;16.25;;;10.45;;
17858;SDS011;35426;30.698;104.050;2023-07-30T05:02:14;15.95;;;10.25;;
17858;SDS011;35426;30.698;104.050;2023-07-30T05:04:48;15.95;;;10.80;;
17858;SDS011;35426;30.698;104.050;2023-07-30T05:07:22;13.35;;;10.65;;
17858;SDS011;35426;30.698;104.050;2023-07-30T05:09:55;13.82;;;10.30;;
17858;SDS011;35426;30.698;104.050;2023-07-30T05:12:28;11.15;;;9.57;;
17858;SDS011;35426;30.698;104.050;2023-07-30T05:15:04;13.30;;;10.57;;
17858;SDS011;35426;30.698;104.050;2023-07-30T05:17:38;13.60;;;10.43;;
17858;SDS011;35426;30.698;104.050;2023-07-30T05:20:11;17.25;;;9.07;;
17858;SDS011;35426;30.698;104.050;2023-07-30T05:22:47;13.55;;;10.30;;
17858;SDS011;35426;30.698;104.050;2023-07-30T05:25:21;13.10;;;9.95;;
17858;SDS011;35426;30.698;104.050;2023-07-30T05:27:55;12.82;;;9.65;;
17858;SDS011;35426;30.698;104.050;2023-07-30T05:30:30;11.48;;;9.48;;
17858;SDS011;35426;30.698;104.050;2023-07-30T05:33:07;12.32;;;9.85;;
17858;SDS011;35426;30.698;104.050;2023-07-30T05:35:40;12.98;;;9.20;;
17858;SDS011;35426;30.698;104.050;2023-07-30T05:38:17;10.80;;;9.43;;
17858;SDS011;35426;30.698;104.050;2023-07-30T05:40:56;12.68;;;9.50;;
17858;SDS011;35426;30.698;104.050;2023-07-30T05:43:28;13.27;;;9.18;;
17858;SDS011;35426;30.698;104.050;2023-07-30T05:46:05;13.10;;;8.85;;
17858;SDS011;35426;30.698;104.050;2023-07-30T05:48:42;10.70;;;9.05;;
17858;SDS011;35426;30.698;104.050;2023-07-30T05:51:16;12.25;;;9.68;;
17858;SDS011;35426;30.698;104.050;2023-07-30T05:53:49;13.10;;;9.40;;
17858;SDS011;35426;30.698;104.050;2023-07-30T05:56:23;14.75;;;10.10;;
17858;SDS011;35426;30.698;104.050;2023-07-30T05:58:56;11.93;;;9.65;;
17858;SDS011;35426;30.698;104.050;2023-07-30T06:01:32;12.90;;;9.63;;
17858;SDS011;35426;30.698;104.050;2023-07-30T06:04:08;13.57;;;9.68;;
17858;SDS011;35426;30.698;104.050;2023-07-30T06:06:41;11.68;;;9.75;;
17858;SDS011;35426;30.698;104.050;2023-07-30T06:09:17;15.40;;;9.73;;
17858;SDS011;35426;30.698;104.050;2023-07-30T06:12:14;13.82;;;9.75;;
17858;SDS011;35426;30.698;104.050;2023-07-30T06:14:48;11.13;;;9.18;;
17858;SDS011;35426;30.698;104.050;2023-07-30T06:17:25;12.00;;;9.45;;
17858;SDS011;35426;30.698;104.050;2023-07-30T06:20:01;10.63;;;8.30;;
17858;SDS011;35426;30.698;104.050;2023-07-30T06:22:36;10.25;;;8.95;;
17858;SDS011;35426;30.698;104.050;2023-07-30T06:25:11;13.15;;;9.35;;
17858;SDS011;35426;30.698;104.050;2023-07-30T06:27:44;12.07;;;8.88;;
17858;SDS011;35426;30.698;104.050;2023-07-30T06:30:18;10.23;;;8.68;;
17858;SDS011;35426;30.698;104.050;2023-07-30T06:32:54;12.13;;;8.50;;
17858;SDS011;35426;30.698;104.050;2023-07-30T06:35:27;10.25;;;8.60;;
17858;SDS011;35426;30.698;104.050;2023-07-30T06:38:01;12.88;;;8.73;;
17858;SDS011;35426;30.698;104.050;2023-07-30T06:40:35;11.70;;;8.07;;
17858;SDS011;35426;30.698;104.050;2023-07-30T06:43:09;11.95;;;8.10;;
17858;SDS011;35426;30.698;104.050;2023-07-30T06:45:43;9.48;;;8.40;;
17858;SDS011;35426;30.698;104.050;2023-07-30T06:48:21;11.75;;;8.50;;
17858;SDS011;35426;30.698;104.050;2023-07-30T06:50:55;11.30;;;8.50;;
17858;SDS011;35426;30.698;104.050;2023-07-30T06:53:29;11.93;;;8.50;;
17858;SDS011;35426;30.698;104.050;2023-07-30T06:56:03;8.85;;;7.95;;
17858;SDS011;35426;30.698;104.050;2023-07-30T06:58:37;9.40;;;7.75;;
17858;SDS011;35426;30.698;104.050;2023-07-30T07:01:10;11.10;;;8.20;;
17858;SDS011;35426;30.698;104.050;2023-07-30T07:03:47;11.40;;;9.00;;
17858;SDS011;35426;30.698;104.050;2023-07-30T07:06:24;10.75;;;8.27;;
17858;SDS011;35426;30.698;104.050;2023-07-30T07:08:58;10.73;;;8.57;;
17858;SDS011;35426;30.698;104.050;2023-07-30T07:11:33;9.60;;;8.48;;
17858;SDS011;35426;30.698;104.050;2023-07-30T07:14:08;14.57;;;8.75;;
17858;SDS011;35426;30.698;104.050;2023-07-30T07:16:42;10.35;;;8.43;;
17858;SDS011;35426;30.698;104.050;2023-07-30T07:19:22;10.13;;;8.07;;
17858;SDS011;35426;30.698;104.050;2023-07-30T07:21:54;10.65;;;8.57;;
17858;SDS011;35426;30.698;104.050;2023-07-30T07:24:28;11.52;;;8.52;;
17858;SDS011;35426;30.698;104.050;2023-07-30T07:27:02;10.85;;;8.10;;
17858;SDS011;35426;30.698;104.050;2023-07-30T07:29:36;9.18;;;8.05;;
17858;SDS011;35426;30.698;104.050;2023-07-30T07:32:12;12.73;;;8.57;;
17858;SDS011;35426;30.698;104.050;2023-07-30T07:34:52;11.68;;;7.75;;
17858;SDS011;35426;30.698;104.050;2023-07-30T07:37:25;10.73;;;7.70;;
17858;SDS011;35426;30.698;104.050;2023-07-30T07:39:59;12.73;;;7.93;;
17858;SDS011;35426;30.698;104.050;2023-07-30T07:42:34;10.48;;;7.53;;
17858;SDS011;35426;30.698;104.050;2023-07-30T07:45:09;13.15;;;7.28;;
17858;SDS011;35426;30.698;104.050;2023-07-30T07:47:43;8.65;;;7.13;;
17858;SDS011;35426;30.698;104.050;2023-07-30T07:50:20;10.23;;;7.22;;
17858;SDS011;35426;30.698;104.050;2023-07-30T07:52:53;9.05;;;7.47;;
17858;SDS011;35426;30.698;104.050;2023-07-30T07:55:28;7.63;;;6.72;;
17858;SDS011;35426;30.698;104.050;2023-07-30T07:58:01;8.60;;;6.88;;
17858;SDS011;35426;30.698;104.050;2023-07-30T08:00:35;8.25;;;7.32;;
17858;SDS011;35426;30.698;104.050;2023-07-30T08:03:09;12.18;;;7.28;;
17858;SDS011;35426;30.698;104.050;2023-07-30T08:05:48;11.18;;;7.47;;
17858;SDS011;35426;30.698;104.050;2023-07-30T08:08:24;9.65;;;7.38;;
17858;SDS011;35426;30.698;104.050;2023-07-30T08:10:58;10.20;;;7.57;;
17858;SDS011;35426;30.698;104.050;2023-07-30T08:13:38;11.95;;;7.80;;
17858;SDS011;35426;30.698;104.050;2023-07-30T08:16:11;10.00;;;7.65;;
17858;SDS011;35426;30.698;104.050;2023-07-30T08:18:45;8.93;;;8.00;;
17858;SDS011;35426;30.698;104.050;2023-07-30T08:21:20;11.10;;;7.70;;
17858;SDS011;35426;30.698;104.050;2023-07-30T08:23:53;9.45;;;7.80;;
17858;SDS011;35426;30.698;104.050;2023-07-30T08:26:30;8.93;;;8.02;;
17858;SDS011;35426;30.698;104.050;2023-07-30T08:29:04;8.75;;;7.85;;
17858;SDS011;35426;30.698;104.050;2023-07-30T08:31:39;11.30;;;7.95;;
17858;SDS011;35426;30.698;104.050;2023-07-30T08:34:18;11.35;;;8.15;;
17858;SDS011;35426;30.698;104.050;2023-07-30T08:36:56;11.02;;;7.97;;
17858;SDS011;35426;30.698;104.050;2023-07-30T08:39:32;9.93;;;7.82;;
17858;SDS011;35426;30.698;104.050;2023-07-30T08:42:07;11.82;;;8.00;;
17858;SDS011;35426;30.698;104.050;2023-07-30T08:44:41;11.93;;;8.05;;
17858;SDS011;35426;30.698;104.050;2023-07-30T08:47:15;15.65;;;7.70;;
17858;SDS011;35426;30.698;104.050;2023-07-30T08:49:49;10.95;;;7.63;;
17858;SDS011;35426;30.698;104.050;2023-07-30T08:52:27;8.45;;;7.55;;
17858;SDS011;35426;30.698;104.050;2023-07-30T08:55:04;9.38;;;8.00;;
17858;SDS011;35426;30.698;104.050;2023-07-30T08:57:39;9.63;;;7.43;;
17858;SDS011;35426;30.698;104.050;2023-07-30T09:00:18;10.93;;;7.88;;
17858;SDS011;35426;30.698;104.050;2023-07-30T09:02:56;8.77;;;7.40;;
17858;SDS011;35426;30.698;104.050;2023-07-30T09:05:32;7.80;;;7.00;;
17858;SDS011;35426;30.698;104.050;2023-07-30T09:08:08;8.98;;;7.93;;
17858;SDS011;35426;30.698;104.050;2023-07-30T09:10:43;9.27;;;7.68;;
17858;SDS011;35426;30.698;104.050;2023-07-30T09:13:22;9.15;;;7.15;;
17858;SDS011;35426;30.698;104.050;2023-07-30T09:15:56;10.50;;;7.10;;
17858;SDS011;35426;30.698;104.050;2023-07-30T09:18:30;10.05;;;7.63;;
17858;SDS011;35426;30.698;104.050;2023-07-30T09:21:12;9.13;;;7.53;;
17858;SDS011;35426;30.698;104.050;2023-07-30T09:23:47;16.65;;;7.30;;
17858;SDS011;35426;30.698;104.050;2023-07-30T09:26:24;10.43;;;7.68;;
17858;SDS011;35426;30.698;104.050;2023-07-30T09:28:59;8.65;;;7.28;;
17858;SDS011;35426;30.698;104.050;2023-07-30T09:31:40;10.80;;;8.07;;
17858;SDS011;35426;30.698;104.050;2023-07-30T09:34:19;11.32;;;8.60;;
17858;SDS011;35426;30.698;104.050;2023-07-30T09:36:55;12.70;;;7.80;;
17858;SDS011;35426;30.698;104.050;2023-07-30T09:39:31;10.50;;;8.23;;
17858;SDS011;35426;30.698;104.050;2023-07-30T09:42:06;9.18;;;7.15;;
17858;SDS011;35426;30.698;104.050;2023-07-30T09:44:39;11.68;;;7.25;;
17858;SDS011;35426;30.698;104.050;2023-07-30T09:47:14;9.45;;;7.60;;
17858;SDS011;35426;30.698;104.050;2023-07-30T09:49:47;11.65;;;7.68;;
17858;SDS011;35426;30.698;104.050;2023-07-30T09:52:22;9.35;;;7.53;;
17858;SDS011;35426;30.698;104.050;2023-07-30T09:54:59;9.25;;;7.47;;
17858;SDS011;35426;30.698;104.050;2023-07-30T09:57:34;11.75;;;7.90;;
17858;SDS011;35426;30.698;104.050;2023-07-30T10:00:08;12.48;;;7.68;;
17858;SDS011;35426;30.698;104.050;2023-07-30T10:02:45;11.88;;;7.53;;
17858;SDS011;35426;30.698;104.050;2023-07-30T10:05:20;12.55;;;7.30;;
17858;SDS011;35426;30.698;104.050;2023-07-30T10:07:57;11.93;;;7.07;;
17858;SDS011;35426;30.698;104.050;2023-07-30T10:10:35;10.88;;;7.90;;
17858;SDS011;35426;30.698;104.050;2023-07-30T10:13:09;11.43;;;8.07;;
17858;SDS011;35426;30.698;104.050;2023-07-30T10:15:45;14.57;;;7.93;;
17858;SDS011;35426;30.698;104.050;2023-07-30T10:18:19;12.15;;;7.65;;
17858;SDS011;35426;30.698;104.050;2023-07-30T10:20:54;11.60;;;8.32;;
17858;SDS011;35426;30.698;104.050;2023-07-30T10:23:29;11.77;;;8.65;;
17858;SDS011;35426;30.698;104.050;2023-07-30T10:26:12;11.35;;;9.23;;
17858;SDS011;35426;30.698;104.050;2023-07-30T10:28:46;13.77;;;8.75;;
17858;SDS011;35426;30.698;104.050;2023-07-30T10:31:20;13.73;;;8.77;;
17858;SDS011;35426;30.698;104.050;2023-07-30T10:34:11;13.05;;;9.63;;
17858;SDS011;35426;30.698;104.050;2023-07-30T10:36:44;15.30;;;9.63;;
17858;SDS011;35426;30.698;104.050;2023-07-30T10:39:19;11.77;;;9.43;;
17858;SDS011;35426;30.698;104.050;2023-07-30T10:42:00;10.80;;;8.98;;
17858;SDS011;35426;30.698;104.050;2023-07-30T10:44:34;11.88;;;8.95;;
17858;SDS011;35426;30.698;104.050;2023-07-30T10:47:08;12.35;;;8.57;;
17858;SDS011;35426;30.698;104.050;2023-07-30T10:50:02;11.07;;;9.38;;
17858;SDS011;35426;30.698;104.050;2023-07-30T10:52:36;12.95;;;9.20;;
17858;SDS011;35426;30.698;104.050;2023-07-30T10:55:10;11.73;;;8.65;;
17858;SDS011;35426;30.698;104.050;2023-07-30T10:57:46;15.40;;;9.02;;
17858;SDS011;35426;30.698;104.050;2023-07-30T11:00:22;14.63;;;9.10;;
17858;SDS011;35426;30.698;104.050;2023-07-30T11:02:55;11.30;;;8.32;;
17858;SDS011;35426;30.698;104.050;2023-07-30T11:05:29;10.27;;;8.25;;
17858;SDS011;35426;30.698;104.050;2023-07-30T11:08:03;10.73;;;8.73;;
17858;SDS011;35426;30.698;104.050;2023-07-30T11:10:44;12.75;;;8.85;;
17858;SDS011;35426;30.698;104.050;2023-07-30T11:13:20;11.52;;;8.48;;
17858;SDS011;35426;30.698;104.050;2023-07-30T11:15:54;13.27;;;8.68;;
17858;SDS011;35426;30.698;104.050;2023-07-30T11:18:28;13.25;;;8.90;;
17858;SDS011;35426;30.698;104.050;2023-07-30T11:21:04;14.48;;;9.57;;
17858;SDS011;35426;30.698;104.050;2023-07-30T11:23:39;14.68;;;9.75;;
17858;SDS011;35426;30.698;104.050;2023-07-30T11:26:15;14.13;;;9.13;;
17858;SDS011;35426;30.698;104.050;2023-07-30T11:28:51;11.43;;;8.95;;
17858;SDS011;35426;30.698;104.050;2023-07-30T11:31:26;14.15;;;9.15;;
17858;SDS011;35426;30.698;104.050;2023-07-30T11:33:59;11.32;;;8.50;;
17858;SDS011;35426;30.698;104.050;2023-07-30T11:36:35;19.15;;;9.95;;
17858;SDS011;35426;30.698;104.050;2023-07-30T11:39:09;12.40;;;9.60;;
17858;SDS011;35426;30.698;104.050;2023-07-30T11:41:43;14.65;;;10.00;;
17858;SDS011;35426;30.698;104.050;2023-07-30T11:47:10;14.45;;;9.95;;
17858;SDS011;35426;30.698;104.050;2023-07-30T11:49:55;15.07;;;10.25;;
17858;SDS011;35426;30.698;104.050;2023-07-30T11:52:30;13.23;;;9.45;;
17858;SDS011;35426;30.698;104.050;2023-07-30T11:55:04;17.92;;;10.70;;
17858;SDS011;35426;30.698;104.050;2023-07-30T11:57:41;15.43;;;10.20;;
17858;SDS011;35426;30.698;104.050;2023-07-30T12:00:17;15.75;;;10.70;;
17858;SDS011;35426;30.698;104.050;2023-07-30T12:02:53;17.40;;;10.65;;
17858;SDS011;35426;30.698;104.050;2023-07-30T12:05:32;15.35;;;11.07;;
17858;SDS011;35426;30.698;104.050;2023-07-30T12:08:13;15.00;;;10.52;;
17858;SDS011;35426;30.698;104.050;2023-07-30T12:10:49;15.93;;;10.90;;
17858;SDS011;35426;30.698;104.050;2023-07-30T12:13:26;17.75;;;11.27;;
17858;SDS011;35426;30.698;104.050;2023-07-30T12:16:03;20.45;;;11.25;;
17858;SDS011;35426;30.698;104.050;2023-07-30T12:18:37;17.92;;;11.10;;
17858;SDS011;35426;30.698;104.050;2023-07-30T12:21:12;18.40;;;11.32;;
17858;SDS011;35426;30.698;104.050;2023-07-30T12:23:48;16.40;;;10.90;;
17858;SDS011;35426;30.698;104.050;2023-07-30T12:26:21;19.42;;;11.38;;
17858;SDS011;35426;30.698;104.050;2023-07-30T12:28:55;16.10;;;10.88;;
17858;SDS011;35426;30.698;104.050;2023-07-30T12:31:30;13.38;;;10.30;;
17858;SDS011;35426;30.698;104.050;2023-07-30T12:34:04;14.77;;;10.05;;
17858;SDS011;35426;30.698;104.050;2023-07-30T12:36:38;18.92;;;10.82;;
17858;SDS011;35426;30.698;104.050;2023-07-30T12:39:12;15.85;;;10.55;;
17858;SDS011;35426;30.698;104.050;2023-07-30T12:41:45;18.63;;;10.18;;
17858;SDS011;35426;30.698;104.050;2023-07-30T12:44:29;15.40;;;10.30;;
17858;SDS011;35426;30.698;104.050;2023-07-30T12:47:05;18.35;;;10.43;;
17858;SDS011;35426;30.698;104.050;2023-07-30T12:49:39;14.07;;;9.60;;
17858;SDS011;35426;30.698;104.050;2023-07-30T12:52:13;15.45;;;10.30;;
17858;SDS011;35426;30.698;104.050;2023-07-30T12:54:46;15.93;;;10.77;;
17858;SDS011;35426;30.698;104.050;2023-07-30T12:57:20;15.98;;;10.25;;
17858;SDS011;35426;30.698;104.050;2023-07-30T12:59:55;15.02;;;10.05;;
17858;SDS011;35426;30.698;104.050;2023-07-30T13:02:32;17.42;;;10.52;;
17858;SDS011;35426;30.698;104.050;2023-07-30T13:05:06;17.38;;;11.13;;
17858;SDS011;35426;30.698;104.050;2023-07-30T13:07:40;16.27;;;11.18;;
17858;SDS011;35426;30.698;104.050;2023-07-30T13:10:15;15.20;;;10.77;;
17858;SDS011;35426;30.698;104.050;2023-07-30T13:12:48;15.73;;;10.15;;
17858;SDS011;35426;30.698;104.050;2023-07-30T13:15:24;16.92;;;10.80;;
17858;SDS011;35426;30.698;104.050;2023-07-30T13:17:59;16.05;;;10.82;;
17858;SDS011;35426;30.698;104.050;2023-07-30T13:20:33;17.95;;;11.75;;
17858;SDS011;35426;30.698;104.050;2023-07-30T13:23:07;17.50;;;11.60;;
17858;SDS011;35426;30.698;104.050;2023-07-30T13:25:40;13.88;;;11.23;;
17858;SDS011;35426;30.698;104.050;2023-07-30T13:28:15;22.52;;;11.52;;
17858;SDS011;35426;30.698;104.050;2023-07-30T13:30:50;20.85;;;12.20;;
17858;SDS011;35426;30.698;104.050;2023-07-30T13:33:27;19.58;;;12.25;;
17858;SDS011;35426;30.698;104.050;2023-07-30T13:36:00;21.17;;;12.05;;
17858;SDS011;35426;30.698;104.050;2023-07-30T13:38:36;16.00;;;12.02;;
17858;SDS011;35426;30.698;104.050;2023-07-30T13:41:09;18.77;;;12.45;;
17858;SDS011;35426;30.698;104.050;2023-07-30T13:43:44;18.48;;;12.23;;
17858;SDS011;35426;30.698;104.050;2023-07-30T13:46:18;17.95;;;12.38;;
17858;SDS011;35426;30.698;104.050;2023-07-30T13:48:53;20.02;;;12.60;;
17858;SDS011;35426;30.698;104.050;2023-07-30T13:51:27;20.50;;;11.70;;
17858;SDS011;35426;30.698;104.050;2023-07-30T13:54:02;20.13;;;12.98;;
17858;SDS011;35426;30.698;104.050;2023-07-30T13:56:37;19.70;;;11.80;;
17858;SDS011;35426;30.698;104.050;2023-07-30T13:59:20;18.90;;;11.88;;
17858;SDS011;35426;30.698;104.050;2023-07-30T14:01:55;19.50;;;11.90;;
17858;SDS011;35426;30.698;104.050;2023-07-30T14:04:31;15.80;;;11.10;;
17858;SDS011;35426;30.698;104.050;2023-07-30T14:07:06;17.60;;;11.75;;
17858;SDS011;35426;30.698;104.050;2023-07-30T14:09:42;15.80;;;11.07;;
17858;SDS011;35426;30.698;104.050;2023-07-30T14:12:15;14.75;;;11.55;;
17858;SDS011;35426;30.698;104.050;2023-07-30T14:15:01;14.70;;;10.65;;
17858;SDS011;35426;30.698;104.050;2023-07-30T14:17:39;17.45;;;11.40;;
17858;SDS011;35426;30.698;104.050;2023-07-30T14:20:18;24.65;;;11.75;;
17858;SDS011;35426;30.698;104.050;2023-07-30T14:22:52;18.13;;;12.50;;
17858;SDS011;35426;30.698;104.050;2023-07-30T14:25:29;15.82;;;11.85;;
17858;SDS011;35426;30.698;104.050;2023-07-30T14:28:03;18.88;;;11.55;;
17858;SDS011;35426;30.698;104.050;2023-07-30T14:30:37;15.52;;;11.80;;
17858;SDS011;35426;30.698;104.050;2023-07-30T14:33:14;16.75;;;11.75;;
17858;SDS011;35426;30.698;104.050;2023-07-30T14:35:50;20.73;;;11.77;;
17858;SDS011;35426;30.698;104.050;2023-07-30T14:38:24;16.75;;;12.57;;
17858;SDS011;35426;30.698;104.050;2023-07-30T14:40:58;17.25;;;11.60;;
17858;SDS011;35426;30.698;104.050;2023-07-30T14:43:32;20.05;;;12.40;;
17858;SDS011;35426;30.698;104.050;2023-07-30T14:46:06;16.88;;;11.48;;
17858;SDS011;35426;30.698;104.050;2023-07-30T14:48:43;21.10;;;12.27;;
17858;SDS011;35426;30.698;104.050;2023-07-30T14:51:21;20.60;;;11.55;;